Benton, California
Current Conditions -  °F | °C
As of 1:35 PM on Monday 24 Nov 2014 (Local Time) from KMMH Reporting Station
Clear Clear  
Wind Chill: 50°   Ceiling: Unl
Heat Index: 50°   Visibility: 10mi
Dew Point:   Wind: 3mph
Humidity: 16%   Direction: 190°S
Pressure: 30.42"   Gusts: NA
Location:  37.82°N, 118.48°W
Report Text: KMMH 242135Z AUTO 19003KT 10SM CLR 10/M15 A3042 RMK AO1
Loading
Personal Weather Stations






























Interactive Weather Map New forecast layout! Learn more

10-Day Weather Forecast

Advertisements
Track Severe Weather on mobile